»·PEaware :: N7365W KLAX-KSAN

N7365W :: KLAX-KSAN

FLIGHT INFORMATION

Flight Status: Arrived
Operator: Privately registered:
United States
More flights under this callsign
Pilot: Roger W. (18657)
Aircraft: CESSNA 182 SKYLANE
(C182)
More flights by this aircraft type
Origin: KLAX Los Angeles Intl
United States
Destination: KSAN San Diego Intl-Lindbergh
United States
More flights between these airports :: More routes between these airports
Route: +
File this flight plan on PilotEdge
Remarks:
Altitude:
(Current/Filed)
0ft
Speed:
(Current/Filed)
0kts
Departed: 10-May-18 01:38 PM
Arrived: 10-May-18 02:32 PM
Distance/Time
Traveled:
95nm/0:54
Distance/Time
To Go:
Arrived

Flight Plot

Page will automatically refresh every two minutes.


Map Options




Map Legend


Flown Route
Filed Route
Departure Airport
Arrival Airport
Navaid (VOR, NDB)
Fix

Horizontal Profiles

Position Reports

Time Latitude Longitude Heading Altitude Ground
Speed
10-May-18 13:22 33.933160 -118.403133 86 129ft 0kts
10-May-18 13:23 33.933160 -118.403129 86 129ft 0kts
10-May-18 13:24 33.933161 -118.403123 86 129ft 0kts
10-May-18 13:25 33.933405 -118.402250 75 129ft 9kts
10-May-18 13:26 33.933445 -118.402030 77 129ft 0kts
10-May-18 13:27 33.933446 -118.402026 77 129ft 0kts
10-May-18 13:28 33.933446 -118.402022 76 129ft 0kts
10-May-18 13:29 33.934314 -118.400640 82 129ft 12kts
10-May-18 13:30 33.934885 -118.395119 82 129ft 18kts
10-May-18 13:31 33.935591 -118.388625 82 129ft 21kts
10-May-18 13:32 33.936195 -118.382754 298 129ft 0kts
10-May-18 13:33 33.936197 -118.382758 298 129ft 0kts
10-May-18 13:34 33.936200 -118.382765 298 129ft 0kts
10-May-18 13:35 33.936676 -118.382924 350 129ft 0kts
10-May-18 13:36 33.936680 -118.382925 350 129ft 0kts
10-May-18 13:37 33.937417 -118.384559 262 129ft 25kts
10-May-18 13:38 33.933892 -118.413799 263 904ft 103kts
10-May-18 13:39 33.931897 -118.448633 267 1698ft 108kts
10-May-18 13:40 33.930243 -118.485378 252 2282ft 111kts
10-May-18 13:41 33.902703 -118.493533 174 2799ft 113kts
10-May-18 13:42 33.870301 -118.485453 143 2990ft 130kts
10-May-18 13:43 33.840188 -118.459590 148 2985ft 133kts
10-May-18 13:44 33.809416 -118.433995 143 2983ft 135kts
10-May-18 13:45 33.779433 -118.406317 142 2998ft 135kts
10-May-18 13:46 33.749967 -118.379172 142 3173ft 126kts
10-May-18 13:47 33.723575 -118.353490 132 3502ft 126kts
10-May-18 13:48 33.707684 -118.314052 101 3500ft 135kts
10-May-18 13:49 33.706974 -118.268853 87 3497ft 136kts
10-May-18 13:50 33.708617 -118.223414 87 3495ft 135kts
10-May-18 13:51 33.710225 -118.179084 87 3492ft 131kts
10-May-18 13:52 33.704004 -118.137718 122 3504ft 130kts
10-May-18 13:53 33.680465 -118.104473 132 3499ft 131kts
10-May-18 13:54 33.656966 -118.071186 133 3498ft 130kts
10-May-18 13:55 33.634440 -118.037087 123 3497ft 130kts
10-May-18 13:56 33.614804 -118.000152 122 3497ft 131kts
10-May-18 13:57 33.595262 -117.963397 122 3497ft 130kts
10-May-18 13:58 33.575705 -117.926624 122 3496ft 130kts
10-May-18 13:59 33.556091 -117.889754 122 3497ft 131kts
10-May-18 14:00 33.536540 -117.853008 122 3496ft 130kts
10-May-18 14:01 33.516984 -117.816262 122 3496ft 131kts
10-May-18 14:02 33.492322 -117.784353 136 3497ft 130kts
10-May-18 14:03 33.465946 -117.754395 136 3496ft 131kts
10-May-18 14:04 33.439461 -117.724334 136 3496ft 130kts
10-May-18 14:05 33.413085 -117.694405 136 3497ft 130kts
10-May-18 14:06 33.386693 -117.664466 136 3496ft 130kts
10-May-18 14:07 33.360201 -117.634424 136 3497ft 131kts
10-May-18 14:08 33.333779 -117.604471 136 3497ft 131kts
10-May-18 14:09 33.307357 -117.574539 136 3496ft 131kts
10-May-18 14:10 33.281330 -117.543938 132 3497ft 131kts
10-May-18 14:11 33.256703 -117.511912 132 3496ft 131kts
10-May-18 14:12 33.231990 -117.479795 132 3497ft 131kts
10-May-18 14:13 33.211790 -117.443717 122 3497ft 131kts
10-May-18 14:14 33.192187 -117.407094 123 3497ft 131kts
10-May-18 14:15 33.163873 -117.380185 150 3497ft 131kts
10-May-18 14:16 33.131947 -117.359351 152 3497ft 131kts
10-May-18 14:17 33.099640 -117.340379 156 3331ft 125kts
10-May-18 14:18 33.068227 -117.322691 155 2802ft 123kts
10-May-18 14:19 33.034340 -117.311097 164 1931ft 127kts
10-May-18 14:20 33.001078 -117.300138 164 1702ft 123kts
10-May-18 14:21 32.967926 -117.289245 164 1697ft 123kts
10-May-18 14:22 32.934756 -117.278352 164 1696ft 123kts
10-May-18 14:23 32.901483 -117.267576 167 1696ft 123kts
10-May-18 14:24 32.868021 -117.258123 166 1697ft 123kts
10-May-18 14:25 32.835342 -117.245289 158 1684ft 123kts
10-May-18 14:26 32.803787 -117.229702 158 1555ft 114kts
10-May-18 14:27 32.774648 -117.215235 153 986ft 105kts
10-May-18 14:28 32.751135 -117.198781 135 685ft 98kts
10-May-18 14:29 32.741674 -117.170980 99 804ft 75kts
10-May-18 14:30 32.735625 -117.146724 162 985ft 77kts
10-May-18 14:31 32.727790 -117.165321 282 422ft 78kts
10-May-18 14:32 32.732812 -117.186175 286 18ft 37kts
10-May-18 14:33 32.734276 -117.189975 19 18ft 0kts
10-May-18 14:34 32.734280 -117.189973 19 18ft 0kts
10-May-18 14:35 32.734368 -117.187726 189 18ft 0kts
10-May-18 14:36 32.734364 -117.187727 189 18ft 0kts
10-May-18 14:37 32.734361 -117.187728 189 18ft 0kts
10-May-18 14:38 32.734361 -117.187728 189 18ft 0kts

Navigation Log

Ident Type
1. KLAX Airport
2. KSAN Airport